Time;durP1;ratioP1;P1;durP2;ratioP2;P2;SDS_P1;SDS_P2;PMS_P1;PMS_P2;Temp;Humidity;BMP_temperature;BMP_pressure;BME280_temperature;BME280_humidity;BME280_pressure;Samples;Min_cycle;Max_cycle;Signal;HPM_P1;HPM_P2
2023/12/15 00:01:00;;;;;;;29.53;18.00;;;;;;;3.25;100.00;100583.20;1480612;88;21325;-78
2023/12/15 00:03:26;;;;;;;38.87;19.10;;;;;;;3.26;100.00;100586.18;1470707;88;21384;-78
2023/12/15 00:05:54;;;;;;;32.37;17.30;;;;;;;3.28;100.00;100587.38;1477968;88;21340;-77
2023/12/15 00:08:20;;;;;;;32.77;18.90;;;;;;;3.26;100.00;100586.66;1473732;88;21420;-78
2023/12/15 00:10:47;;;;;;;39.00;21.37;;;;;;;3.26;100.00;100596.64;1482018;88;21391;-78
2023/12/15 00:13:13;;;;;;;31.20;17.73;;;;;;;3.26;100.00;100592.72;1473468;88;21562;-78
2023/12/15 00:15:39;;;;;;;32.93;18.10;;;;;;;3.25;100.00;100590.19;1472199;88;21370;-77
2023/12/15 00:18:06;;;;;;;36.67;21.23;;;;;;;3.21;100.00;100587.41;1478092;88;21599;-78
2023/12/15 00:20:32;;;;;;;30.27;17.73;;;;;;;3.21;100.00;100583.48;1480832;88;21548;-79
2023/12/15 00:22:58;;;;;;;30.47;16.77;;;;;;;3.25;100.00;100590.19;1484679;88;21377;-79
2023/12/15 00:25:25;;;;;;;28.67;16.83;;;;;;;3.24;100.00;100590.66;1468751;88;21488;-78
2023/12/15 00:27:51;;;;;;;31.70;17.87;;;;;;;3.25;100.00;100596.28;1479882;88;21384;-78
2023/12/15 00:30:18;;;;;;;33.70;18.17;;;;;;;3.26;100.00;100599.73;1478970;88;22180;-79
2023/12/15 00:32:44;;;;;;;31.93;20.97;;;;;;;3.28;100.00;100609.61;1481025;88;21442;-78
2023/12/15 00:35:10;;;;;;;27.70;15.50;;;;;;;3.30;100.00;100607.75;1474440;88;21376;-78
2023/12/15 00:37:37;;;;;;;32.53;18.23;;;;;;;3.31;100.00;100617.27;1470540;88;21520;-78
2023/12/15 00:40:03;;;;;;;27.97;16.40;;;;;;;3.31;100.00;100615.52;1476622;88;22271;-78
2023/12/15 00:42:29;;;;;;;30.07;16.77;;;;;;;3.30;100.00;100618.21;1475867;88;21391;-78
2023/12/15 00:44:56;;;;;;;32.30;17.60;;;;;;;3.32;100.00;100622.41;1477582;88;21569;-77
2023/12/15 00:47:23;;;;;;;29.57;15.87;;;;;;;3.33;100.00;100629.78;1454441;88;21376;-77
2023/12/15 00:49:49;;;;;;;33.20;16.33;;;;;;;3.34;100.00;100634.11;1479181;88;21375;-78
2023/12/15 00:52:15;;;;;;;31.67;16.87;;;;;;;3.35;100.00;100633.16;1480693;88;21481;-78
2023/12/15 00:54:41;;;;;;;26.27;15.37;;;;;;;3.39;100.00;100629.40;1476801;88;22359;-78
2023/12/15 00:57:07;;;;;;;34.67;18.17;;;;;;;3.36;100.00;100630.42;1473853;88;21398;-78
2023/12/15 00:59:33;;;;;;;29.07;16.30;;;;;;;3.42;100.00;100640.14;1473280;88;21458;-78
2023/12/15 01:02:00;;;;;;;29.23;15.40;;;;;;;3.43;100.00;100645.77;1474352;88;21259;-78
2023/12/15 01:04:26;;;;;;;28.70;17.30;;;;;;;3.43;100.00;100649.70;1482324;88;21567;-78
2023/12/15 01:06:52;;;;;;;30.73;18.10;;;;;;;3.44;100.00;100643.04;1478922;88;21339;-78
2023/12/15 01:09:18;;;;;;;28.73;16.30;;;;;;;3.45;100.00;100646.02;1482579;88;21553;-78
2023/12/15 01:11:45;;;;;;;32.50;19.03;;;;;;;3.46;100.00;100652.12;1452516;88;21442;-78
2023/12/15 01:14:11;;;;;;;30.53;17.10;;;;;;;3.45;100.00;100660.41;1477460;88;21595;-78
2023/12/15 01:16:46;;;;;;;29.80;17.30;;;;;;;3.46;100.00;100669.12;1470905;88;21474;-78
2023/12/15 01:19:12;;;;;;;33.17;18.27;;;;;;;3.44;100.00;100666.59;1474544;88;21538;-78
2023/12/15 01:21:39;;;;;;;33.63;17.97;;;;;;;3.44;100.00;100674.44;1450025;89;22399;-78
2023/12/15 01:24:06;;;;;;;39.13;19.63;;;;;;;3.44;100.00;100678.36;1462415;89;22218;-78
2023/12/15 01:26:32;;;;;;;32.97;18.93;;;;;;;3.44;100.00;100680.14;1470187;89;21456;-78
2023/12/15 01:28:58;;;;;;;34.20;20.47;;;;;;;3.43;100.00;100684.55;1458729;89;21412;-77
2023/12/15 01:31:24;;;;;;;30.60;17.80;;;;;;;3.42;100.00;100681.53;1454852;89;21494;-78
2023/12/15 01:33:51;;;;;;;33.63;19.30;;;;;;;3.43;100.00;100690.25;1453008;89;21427;-78
2023/12/15 01:36:17;;;;;;;37.90;19.93;;;;;;;3.39;100.00;100697.42;1455507;89;21352;-78
2023/12/15 01:38:43;;;;;;;33.50;19.70;;;;;;;3.35;100.00;100694.17;1456189;89;21374;-77
2023/12/15 01:41:10;;;;;;;34.47;19.53;;;;;;;3.38;100.00;100700.52;1447098;89;22218;-78
2023/12/15 01:43:37;;;;;;;89.20;39.97;;;;;;;3.38;100.00;100710.15;1458325;89;21324;-78
2023/12/15 01:46:04;;;;;;;42.30;22.30;;;;;;;3.40;100.00;100709.59;1463089;89;21516;-78
2023/12/15 01:48:31;;;;;;;36.33;21.40;;;;;;;3.42;100.00;100713.41;1457641;89;22388;-77
2023/12/15 01:50:57;;;;;;;36.87;21.23;;;;;;;3.42;100.00;100711.63;1460140;89;21531;-77
2023/12/15 01:53:23;;;;;;;39.53;24.63;;;;;;;3.43;100.00;100717.73;1461435;89;21442;-77
2023/12/15 01:55:49;;;;;;;43.43;25.63;;;;;;;3.41;100.00;100715.19;1457439;89;22247;-77
2023/12/15 01:58:16;;;;;;;34.17;21.13;;;;;;;3.40;100.00;100717.45;1460492;89;21390;-77
2023/12/15 02:00:44;;;;;;;42.77;26.03;;;;;;;3.39;100.00;100717.05;1458202;89;21359;-78
2023/12/15 02:03:10;;;;;;;32.40;20.40;;;;;;;3.37;100.00;100726.31;1464644;89;21434;-78
2023/12/15 02:05:36;;;;;;;33.37;19.50;;;;;;;3.39;100.00;100726.20;1458027;89;21593;-77
2023/12/15 02:08:02;;;;;;;41.77;23.70;;;;;;;3.37;100.00;100728.94;1464830;89;21383;-78
2023/12/15 02:10:29;;;;;;;43.57;23.37;;;;;;;3.37;100.00;100725.48;1461810;89;21463;-77
2023/12/15 02:12:55;;;;;;;36.67;20.77;;;;;;;3.36;100.00;100728.54;1455149;89;22248;-78
2023/12/15 02:15:21;;;;;;;35.67;20.40;;;;;;;3.35;100.00;100724.73;1457430;89;21309;-77
2023/12/15 02:17:47;;;;;;;33.23;18.93;;;;;;;3.34;100.00;100728.29;1462515;89;21563;-77
2023/12/15 02:20:14;;;;;;;33.80;19.50;;;;;;;3.34;100.00;100728.29;1465439;89;21353;-78
2023/12/15 02:22:40;;;;;;;33.47;19.80;;;;;;;3.34;100.00;100736.14;1479439;88;22367;-77
2023/12/15 02:25:07;;;;;;;36.73;19.63;;;;;;;3.31;100.00;100740.22;1490790;88;21405;-77
2023/12/15 02:27:33;;;;;;;32.33;18.67;;;;;;;3.30;100.00;100747.70;1474181;88;21413;-77
2023/12/15 02:29:59;;;;;;;36.80;21.57;;;;;;;3.28;100.00;100752.18;1486467;88;21583;-77
2023/12/15 02:32:26;;;;;;;39.90;21.53;;;;;;;3.26;100.00;100757.99;1456984;88;21353;-77
2023/12/15 02:34:52;;;;;;;48.23;24.63;;;;;;;3.24;100.00;100759.85;1484113;88;22382;-77
2023/12/15 02:37:18;;;;;;;36.17;21.40;;;;;;;3.24;100.00;100766.39;1452643;88;21442;-78
2023/12/15 02:39:44;;;;;;;63.63;37.17;;;;;;;3.22;100.00;100769.09;1482683;88;21376;-77
2023/12/15 02:42:10;;;;;;;48.87;28.60;;;;;;;3.20;100.00;100775.38;1479715;88;21361;-77
2023/12/15 02:44:36;;;;;;;52.97;30.43;;;;;;;3.18;100.00;100774.61;1481350;88;21318;-77
2023/12/15 02:47:03;;;;;;;51.13;27.73;;;;;;;3.19;100.00;100780.20;1478536;88;21457;-78
2023/12/15 02:49:29;;;;;;;48.80;27.40;;;;;;;3.16;100.00;100786.45;1489093;88;21443;-76
2023/12/15 02:51:55;;;;;;;61.40;36.03;;;;;;;3.16;100.00;100791.25;1483732;88;21382;-77
2023/12/15 02:54:21;;;;;;;49.03;28.67;;;;;;;3.18;100.00;100795.53;1485763;88;21361;-78
2023/12/15 02:56:47;;;;;;;40.03;24.80;;;;;;;3.19;100.00;100794.59;1459315;88;21465;-78
2023/12/15 02:59:14;;;;;;;44.97;26.37;;;;;;;3.18;100.00;100792.92;1481521;88;21361;-78
2023/12/15 03:01:40;;;;;;;36.27;20.90;;;;;;;3.20;100.00;100792.38;1470315;88;21354;-78
2023/12/15 03:04:06;;;;;;;38.20;21.43;;;;;;;3.22;100.00;100800.95;1481917;88;21916;-78
2023/12/15 03:06:32;;;;;;;34.80;19.13;;;;;;;3.22;100.00;100808.80;1481255;88;22322;-77
2023/12/15 03:08:58;;;;;;;37.43;19.57;;;;;;;3.23;100.00;100815.26;1476174;88;21361;-78
2023/12/15 03:11:24;;;;;;;36.80;19.23;;;;;;;3.25;100.00;100819.08;1482400;88;21508;-78
2023/12/15 03:13:50;;;;;;;32.83;18.30;;;;;;;3.25;100.00;100813.84;1454220;88;21457;-78
2023/12/15 03:16:17;;;;;;;30.27;16.90;;;;;;;3.24;100.00;100815.63;1477227;88;21398;-77
2023/12/15 03:18:44;;;;;;;38.37;19.77;;;;;;;3.27;100.00;100810.67;1430211;88;22389;-77
2023/12/15 03:21:10;;;;;;;34.27;19.33;;;;;;;3.26;100.00;100818.16;1481720;88;21324;-77
2023/12/15 03:23:37;;;;;;;34.20;19.47;;;;;;;3.27;100.00;100825.06;1473841;88;21494;-77
2023/12/15 03:26:04;;;;;;;29.17;17.53;;;;;;;3.24;100.00;100821.33;1474773;88;21509;-77
2023/12/15 03:28:30;;;;;;;35.47;20.43;;;;;;;3.25;100.00;100826.92;1470207;88;21428;-77
2023/12/15 03:30:57;;;;;;;33.93;21.53;;;;;;;3.25;100.00;100836.08;1479181;88;22324;-77
2023/12/15 03:33:28;;;;;;;34.27;20.87;;;;;;;3.24;100.00;100835.24;1450088;88;21612;-77
2023/12/15 03:35:54;;;;;;;35.77;17.83;;;;;;;3.24;100.00;100838.33;1476990;88;22438;-77
2023/12/15 03:38:22;;;;;;;33.23;19.03;;;;;;;3.22;100.00;100844.11;1473217;88;21376;-78
2023/12/15 03:40:48;;;;;;;36.03;20.13;;;;;;;3.23;100.00;100839.27;1477458;88;21412;-79
2023/12/15 03:43:15;;;;;;;34.30;20.67;;;;;;;3.21;100.00;100849.81;1474085;88;22846;-79
2023/12/15 03:45:41;;;;;;;31.73;18.83;;;;;;;3.20;100.00;100844.69;1473377;88;21467;-79
2023/12/15 03:48:07;;;;;;;38.43;22.57;;;;;;;3.15;100.00;100861.47;1466057;88;21506;-78
2023/12/15 03:50:34;;;;;;;31.80;18.60;;;;;;;3.16;100.00;100861.88;1475246;88;22257;-79
2023/12/15 03:53:00;;;;;;;31.27;19.30;;;;;;;3.15;100.00;100869.32;1473515;88;21369;-79
2023/12/15 03:55:26;;;;;;;31.93;18.93;;;;;;;3.16;100.00;100868.41;1479530;88;21325;-77
2023/12/15 03:57:52;;;;;;;36.27;17.77;;;;;;;3.18;100.00;100872.70;1475138;88;22375;-79
2023/12/15 04:00:20;;;;;;;34.57;19.30;;;;;;;3.16;100.00;100867.10;1476763;88;21362;-79
2023/12/15 04:02:47;;;;;;;36.77;20.70;;;;;;;3.19;100.00;100869.14;1469236;88;21317;-79
2023/12/15 04:05:14;;;;;;;30.23;17.47;;;;;;;3.18;100.00;100877.93;1477073;88;21391;-79
2023/12/15 04:07:40;;;;;;;30.73;17.57;;;;;;;3.15;100.00;100873.24;1470347;88;21895;-78
2023/12/15 04:10:09;;;;;;;29.47;17.20;;;;;;;3.21;100.00;100876.44;1474536;88;21420;-78
2023/12/15 04:12:37;;;;;;;29.83;16.93;;;;;;;3.20;100.00;100878.22;1478192;88;21355;-78
2023/12/15 04:15:04;;;;;;;31.43;18.63;;;;;;;3.24;100.00;100884.11;1469740;88;21443;-78
2023/12/15 04:17:30;;;;;;;32.47;17.33;;;;;;;3.22;100.00;100889.41;1471886;88;21606;-78
2023/12/15 04:19:57;;;;;;;32.43;17.67;;;;;;;3.22;100.00;100897.73;1461432;88;22787;-78
2023/12/15 04:22:23;;;;;;;32.40;18.00;;;;;;;3.24;100.00;100892.80;1475773;88;21523;-78
2023/12/15 04:24:50;;;;;;;29.17;16.70;;;;;;;3.27;100.00;100898.31;1475353;88;21554;-77
2023/12/15 04:27:16;;;;;;;30.87;17.97;;;;;;;3.29;100.00;100903.00;1483570;88;21844;-78
2023/12/15 04:29:42;;;;;;;31.80;17.87;;;;;;;3.31;100.00;100907.22;1485922;88;21578;-78
2023/12/15 04:32:08;;;;;;;30.07;17.87;;;;;;;3.32;100.00;100901.05;1480628;88;21413;-78
2023/12/15 04:34:37;;;;;;;29.03;16.97;;;;;;;3.33;100.00;100914.96;1453892;88;21368;-78
2023/12/15 04:37:03;;;;;;;30.57;17.50;;;;;;;3.35;100.00;100915.72;1476794;88;21531;-78
2023/12/15 04:39:29;;;;;;;29.23;16.60;;;;;;;3.34;100.00;100920.12;1476284;88;21302;-79
2023/12/15 04:41:55;;;;;;;25.80;15.23;;;;;;;3.37;100.00;100923.86;1485736;88;21420;-78
2023/12/15 04:44:21;;;;;;;30.43;17.63;;;;;;;3.36;100.00;100922.63;1479916;88;21391;-78
2023/12/15 04:46:48;;;;;;;28.03;16.17;;;;;;;3.36;100.00;100922.63;1476516;88;21369;-78
2023/12/15 04:49:14;;;;;;;26.10;16.73;;;;;;;3.36;100.00;100928.70;1461918;88;22307;-78
2023/12/15 04:51:40;;;;;;;34.73;19.17;;;;;;;3.36;100.00;100943.56;1479019;88;21324;-78
2023/12/15 04:54:07;;;;;;;29.23;15.80;;;;;;;3.38;100.00;100941.70;1473115;88;21375;-78
2023/12/15 04:56:33;;;;;;;25.73;15.13;;;;;;;3.36;100.00;100941.78;1481435;88;21597;-79
2023/12/15 04:58:59;;;;;;;30.17;17.27;;;;;;;3.36;100.00;100947.48;1485835;88;22242;-78
2023/12/15 05:01:25;;;;;;;25.20;15.43;;;;;;;3.38;100.00;100954.80;1460110;88;21383;-79
2023/12/15 05:03:51;;;;;;;28.57;16.77;;;;;;;3.36;100.00;100963.19;1480334;88;21383;-78
2023/12/15 05:06:23;;;;;;;26.23;16.07;;;;;;;3.35;100.00;100965.44;1479162;88;22241;-78
2023/12/15 05:08:51;;;;;;;25.77;15.73;;;;;;;3.33;100.00;100971.21;1481083;88;21407;-78
2023/12/15 05:11:19;;;;;;;24.43;15.17;;;;;;;3.32;100.00;100970.84;1479734;88;21346;-78
2023/12/15 05:13:45;;;;;;;27.30;16.57;;;;;;;3.29;100.00;100969.25;1485953;88;21295;-78
2023/12/15 05:16:12;;;;;;;25.37;15.50;;;;;;;3.29;100.00;100973.64;1477219;88;21442;-78
2023/12/15 05:18:38;;;;;;;26.57;16.47;;;;;;;3.25;100.00;100970.80;1481069;88;21465;-78
2023/12/15 05:21:05;;;;;;;20.53;13.80;;;;;;;3.24;100.00;100973.89;1485959;88;21385;-78
2023/12/15 05:23:32;;;;;;;28.20;15.37;;;;;;;3.23;100.00;100982.68;1478924;88;21627;-78
2023/12/15 05:25:58;;;;;;;28.33;15.77;;;;;;;3.22;100.00;100980.13;1484682;88;21339;-78
2023/12/15 05:28:25;;;;;;;25.40;15.83;;;;;;;3.22;100.00;100986.67;1482657;88;21383;-78
2023/12/15 05:30:51;;;;;;;25.73;14.83;;;;;;;3.23;100.00;100993.61;1484526;88;21509;-78
2023/12/15 05:33:17;;;;;;;25.73;14.43;;;;;;;3.23;100.00;101000.16;1475317;88;21428;-77
2023/12/15 05:35:44;;;;;;;21.53;13.27;;;;;;;3.23;100.00;101002.77;1477704;88;21531;-78
2023/12/15 05:38:10;;;;;;;22.60;13.57;;;;;;;3.25;100.00;101005.69;1476085;88;21442;-78
2023/12/15 05:40:36;;;;;;;17.10;11.20;;;;;;;3.28;100.00;101012.48;1455921;88;22226;-78
2023/12/15 05:43:02;;;;;;;18.80;12.93;;;;;;;3.30;100.00;101010.63;1475333;88;21531;-78
2023/12/15 05:45:28;;;;;;;23.83;12.17;;;;;;;3.33;100.00;101013.08;1476994;88;21376;-78
2023/12/15 05:47:55;;;;;;;17.37;11.33;;;;;;;3.38;100.00;101015.81;1486599;88;21383;-78
2023/12/15 05:50:21;;;;;;;16.97;9.80;;;;;;;3.42;100.00;101021.70;1476875;88;22300;-78
2023/12/15 05:52:48;;;;;;;18.37;10.90;;;;;;;3.42;100.00;101019.09;1479160;88;21517;-78
2023/12/15 05:55:14;;;;;;;16.23;10.47;;;;;;;3.48;100.00;101029.23;1447566;88;22227;-78
2023/12/15 05:57:40;;;;;;;18.40;9.60;;;;;;;3.52;100.00;101033.35;1477826;88;21376;-78
2023/12/15 06:00:09;;;;;;;14.90;9.63;;;;;;;3.53;100.00;101036.33;1477689;88;21317;-77
2023/12/15 06:02:35;;;;;;;18.63;9.67;;;;;;;3.58;100.00;101038.23;1462807;88;21376;-77
2023/12/15 06:05:01;;;;;;;13.67;9.23;;;;;;;3.58;100.00;101042.16;1485497;88;21501;-78
2023/12/15 06:07:28;;;;;;;16.73;8.83;;;;;;;3.60;100.00;101042.92;1464629;88;21376;-77
2023/12/15 06:09:54;;;;;;;14.50;8.10;;;;;;;3.63;100.00;101052.84;1481015;88;21591;-76
2023/12/15 06:12:20;;;;;;;13.77;7.90;;;;;;;3.64;100.00;101051.91;1475305;88;21346;-77
2023/12/15 06:14:46;;;;;;;12.57;7.57;;;;;;;3.67;100.00;101055.66;1478213;88;22271;-77
2023/12/15 06:17:12;;;;;;;10.90;7.13;;;;;;;3.68;100.00;101067.80;1477875;88;21413;-78
2023/12/15 06:19:42;;;;;;;12.77;8.00;;;;;;;3.71;100.00;101068.94;1477404;88;21487;-77
2023/12/15 06:22:09;;;;;;;12.83;7.47;;;;;;;3.73;100.00;101083.63;1485763;88;21847;-77
2023/12/15 06:24:35;;;;;;;12.33;7.27;;;;;;;3.78;100.00;101082.06;1474933;88;21391;-77
2023/12/15 06:27:03;;;;;;;12.90;7.40;;;;;;;3.80;100.00;101081.52;1478701;88;21355;-78
2023/12/15 06:29:29;;;;;;;11.40;6.93;;;;;;;3.83;100.00;101090.04;1475885;88;21464;-77
2023/12/15 06:31:56;;;;;;;10.67;7.47;;;;;;;3.85;100.00;101097.79;1479527;88;21347;-73
2023/12/15 06:34:22;;;;;;;11.77;7.30;;;;;;;3.94;100.00;101102.52;1471397;88;21435;-72
2023/12/15 06:36:48;;;;;;;11.47;7.13;;;;;;;4.12;100.00;101107.63;1457218;88;21561;-71
2023/12/15 06:39:14;;;;;;;11.93;7.73;;;;;;;4.30;100.00;101111.78;1481601;88;22359;-72
2023/12/15 06:41:40;;;;;;;11.43;7.03;;;;;;;4.37;100.00;101115.70;1475184;88;21413;-73
2023/12/15 06:44:06;;;;;;;10.53;6.73;;;;;;;4.45;100.00;101119.19;1457585;88;21406;-77
2023/12/15 06:46:36;;;;;;;13.83;8.90;;;;;;;4.42;100.00;101124.14;1475619;88;21361;-77
2023/12/15 06:49:01;;;;;;;13.17;8.37;;;;;;;4.35;100.00;101122.00;1476507;88;21399;-77
2023/12/15 06:51:27;;;;;;;11.00;6.77;;;;;;;4.24;100.00;101131.32;1482028;88;21384;-77
2023/12/15 06:53:53;;;;;;;15.13;8.73;;;;;;;4.21;100.00;101128.05;1480056;88;21398;-77
2023/12/15 06:56:19;;;;;;;13.73;8.83;;;;;;;4.14;100.00;101130.62;1481214;88;22375;-76
2023/12/15 06:58:45;;;;;;;14.50;9.03;;;;;;;4.11;100.00;101133.42;1475216;88;21428;-76
2023/12/15 07:01:13;;;;;;;13.03;7.73;;;;;;;4.07;100.00;101144.09;1482151;88;21609;-78
2023/12/15 07:03:40;;;;;;;11.30;7.70;;;;;;;4.04;100.00;101142.12;1487059;88;21361;-77
2023/12/15 07:06:07;;;;;;;13.60;8.30;;;;;;;4.02;100.00;101149.20;1474187;88;22817;-77
2023/12/15 07:08:33;;;;;;;12.30;7.40;;;;;;;3.94;100.00;101156.22;1475522;88;21419;-78
2023/12/15 07:10:59;;;;;;;12.63;8.37;;;;;;;3.92;100.00;101150.21;1486380;88;22279;-78
2023/12/15 07:13:26;;;;;;;14.57;9.60;;;;;;;3.93;100.00;101164.98;1456568;88;22420;-78
2023/12/15 07:15:52;;;;;;;12.07;6.90;;;;;;;3.93;100.00;101163.67;1484206;88;21435;-78
2023/12/15 07:18:18;;;;;;;14.60;8.53;;;;;;;3.91;100.00;101166.84;1478460;88;21383;-78
2023/12/15 07:20:45;;;;;;;13.20;8.57;;;;;;;3.91;100.00;101166.84;1471400;88;21354;-78
2023/12/15 07:23:12;;;;;;;16.83;9.87;;;;;;;3.95;100.00;101174.08;1463241;88;21472;-77
2023/12/15 07:25:38;;;;;;;11.73;7.40;;;;;;;3.93;100.00;101176.77;1481224;88;21376;-77
2023/12/15 07:28:05;;;;;;;12.83;8.30;;;;;;;3.92;100.00;101177.71;1478437;88;21406;-78
2023/12/15 07:30:31;;;;;;;18.20;7.60;;;;;;;3.94;100.00;101181.09;1475739;88;21493;-78
2023/12/15 07:32:57;;;;;;;11.33;6.50;;;;;;;3.93;100.00;101179.39;1482084;88;22330;-77
2023/12/15 07:35:23;;;;;;;10.87;7.37;;;;;;;3.93;100.00;101182.00;1485148;88;21420;-77
2023/12/15 07:37:51;;;;;;;14.63;8.50;;;;;;;3.99;100.00;101188.20;1480386;88;21413;-77
2023/12/15 07:40:17;;;;;;;12.97;8.33;;;;;;;4.00;100.00;101203.01;1478799;88;21390;-77
2023/12/15 07:42:43;;;;;;;14.03;7.70;;;;;;;3.98;100.00;101210.57;1489384;87;21433;-78
2023/12/15 07:45:11;;;;;;;10.90;7.30;;;;;;;3.96;100.00;101210.64;1473785;88;21316;-77
2023/12/15 07:47:37;;;;;;;14.10;7.63;;;;;;;4.00;100.00;101218.73;1472587;88;21476;-77
2023/12/15 07:50:04;;;;;;;13.70;7.43;;;;;;;4.00;100.00;101218.73;1476975;88;21442;-78
2023/12/15 07:52:30;;;;;;;18.73;7.60;;;;;;;4.01;100.00;101229.58;1476690;88;21391;-77
2023/12/15 07:54:56;;;;;;;15.27;8.50;;;;;;;4.02;100.00;101233.03;1474325;88;22315;-77
2023/12/15 07:57:23;;;;;;;14.70;8.87;;;;;;;4.06;100.00;101244.58;1488680;88;21383;-77
2023/12/15 07:59:49;;;;;;;14.27;9.07;;;;;;;4.09;100.00;101246.65;1462896;88;21391;-78
2023/12/15 08:02:19;;;;;;;106.97;60.30;;;;;;;4.10;100.00;101260.13;1486779;87;22139;-77
2023/12/15 08:04:43;;;;;;;26.93;18.20;;;;;;;4.10;100.00;101260.13;1478133;88;21434;-77
2023/12/15 08:07:09;;;;;;;13.73;9.03;;;;;;;4.14;100.00;101268.17;1473467;88;21436;-77
2023/12/15 08:09:35;;;;;;;13.43;8.57;;;;;;;4.17;100.00;101268.88;1476120;88;21405;-77
2023/12/15 08:12:01;;;;;;;12.37;7.43;;;;;;;4.17;100.00;101275.86;1477648;88;21331;-77
2023/12/15 08:14:28;;;;;;;14.70;7.80;;;;;;;4.19;100.00;101281.88;1477920;88;21656;-78
2023/12/15 08:16:55;;;;;;;13.80;7.87;;;;;;;4.24;100.00;101292.95;1477373;88;21383;-77
2023/12/15 08:19:21;;;;;;;12.23;7.30;;;;;;;4.23;100.00;101299.09;1481548;88;21369;-77
2023/12/15 08:21:52;;;;;;;15.17;8.23;;;;;;;4.27;100.00;101296.70;1475248;88;21367;-78
2023/12/15 08:24:15;;;;;;;14.10;8.07;;;;;;;4.25;100.00;101309.04;1473804;88;21406;-78
2023/12/15 08:26:42;;;;;;;14.40;7.67;;;;;;;4.22;100.00;101308.73;1472941;88;21517;-77
2023/12/15 08:29:08;;;;;;;12.87;7.27;;;;;;;4.25;100.00;101317.73;1473433;88;21532;-76
2023/12/15 08:31:34;;;;;;;14.43;8.37;;;;;;;4.29;100.00;101321.05;1471639;88;21354;-76
2023/12/15 08:34:00;;;;;;;10.97;7.70;;;;;;;4.29;100.00;101317.12;1471497;88;21488;-76
2023/12/15 08:36:27;;;;;;;11.60;6.83;;;;;;;4.25;100.00;101324.29;1479147;88;22264;-77
2023/12/15 08:38:53;;;;;;;14.97;8.60;;;;;;;4.24;100.00;101332.25;1475638;88;21377;-76
2023/12/15 08:41:19;;;;;;;13.53;7.93;;;;;;;4.26;100.00;101339.58;1474192;88;21295;-76
2023/12/15 08:43:45;;;;;;;14.03;8.27;;;;;;;4.19;100.00;101349.99;1459814;88;22241;-77
2023/12/15 08:46:12;;;;;;;15.20;9.77;;;;;;;4.23;100.00;101350.19;1478949;88;21719;-76
2023/12/15 08:48:38;;;;;;;24.63;14.50;;;;;;;4.26;100.00;101350.05;1472007;88;21443;-76
2023/12/15 08:51:05;;;;;;;25.97;15.07;;;;;;;4.27;100.00;101354.36;1476082;88;21391;-77
2023/12/15 08:53:31;;;;;;;15.33;8.30;;;;;;;4.26;100.00;101356.14;1472107;88;21989;-77
2023/12/15 08:55:57;;;;;;;12.00;7.60;;;;;;;4.25;100.00;101373.23;1478160;88;21495;-75
2023/12/15 08:58:25;;;;;;;15.33;8.20;;;;;;;4.23;100.00;101375.96;1472889;88;22211;-77
2023/12/15 09:00:52;;;;;;;11.70;7.23;;;;;;;4.24;100.00;101376.80;1456104;88;22391;-78
2023/12/15 09:03:18;;;;;;;15.00;8.40;;;;;;;4.20;100.00;101377.88;1473479;88;21399;-78
2023/12/15 09:05:44;;;;;;;9.47;5.57;;;;;;;4.25;100.00;101379.79;1480328;88;21495;-75
2023/12/15 09:08:10;;;;;;;21.17;11.10;;;;;;;4.26;100.00;101385.43;1474214;88;21376;-77
2023/12/15 09:10:42;;;;;;;10.20;6.17;;;;;;;4.22;100.00;101391.28;1472861;88;22611;-76
2023/12/15 09:13:05;;;;;;;14.20;7.43;;;;;;;4.23;100.00;101387.75;1474764;88;21383;-76
2023/12/15 09:15:31;;;;;;;12.97;7.20;;;;;;;4.19;100.00;101392.77;1477021;88;21347;-77
2023/12/15 09:17:57;;;;;;;6.90;5.17;;;;;;;4.19;100.00;101405.02;1476603;88;21808;-75
2023/12/15 09:20:24;;;;;;;9.03;5.53;;;;;;;4.23;100.00;101409.16;1477141;88;21413;-77
2023/12/15 09:22:51;;;;;;;11.67;6.60;;;;;;;4.23;100.00;101401.29;1477617;88;21509;-77
2023/12/15 09:25:17;;;;;;;17.00;10.07;;;;;;;4.25;100.00;101402.06;1476788;88;21458;-76
2023/12/15 09:27:45;;;;;;;35.70;19.50;;;;;;;4.27;100.00;101406.77;1478874;88;22226;-76
2023/12/15 09:30:12;;;;;;;11.50;6.50;;;;;;;4.27;100.00;101401.52;1471481;88;21419;-76
2023/12/15 09:32:39;;;;;;;36.07;19.57;;;;;;;4.29;100.00;101406.23;1479686;88;21398;-77
2023/12/15 09:35:07;;;;;;;10.77;6.77;;;;;;;4.32;100.00;101411.30;1480032;88;21398;-76
2023/12/15 09:37:33;;;;;;;8.00;4.90;;;;;;;4.27;100.00;101404.98;1477625;88;21436;-76
2023/12/15 09:40:00;;;;;;;8.63;4.60;;;;;;;4.26;100.00;101412.48;1478575;88;21354;-76
2023/12/15 09:42:26;;;;;;;11.57;5.23;;;;;;;4.20;100.00;101406.70;1478975;88;22666;-76
2023/12/15 09:44:52;;;;;;;10.00;5.23;;;;;;;4.25;100.00;101416.48;1485448;88;21458;-76
2023/12/15 09:47:22;;;;;;;7.53;4.23;;;;;;;4.32;100.00;101415.23;1476485;88;21546;-76
2023/12/15 09:49:52;;;;;;;7.53;4.90;;;;;;;4.30;100.00;101421.85;1483396;88;21948;-77
2023/12/15 09:52:20;;;;;;;7.10;4.77;;;;;;;4.27;100.00;101429.05;1481601;88;21966;-76
2023/12/15 09:54:49;;;;;;;7.57;4.60;;;;;;;4.34;100.00;101431.70;1484490;88;21478;-76
2023/12/15 09:57:17;;;;;;;6.40;4.27;;;;;;;4.37;100.00;101426.76;1484319;88;22708;-76
2023/12/15 09:59:43;;;;;;;7.07;3.97;;;;;;;4.37;100.00;101438.55;1485229;88;21479;-76
2023/12/15 10:02:10;;;;;;;7.03;4.43;;;;;;;4.33;100.00;101443.13;1474715;88;22308;-75
2023/12/15 10:04:36;;;;;;;8.00;3.93;;;;;;;4.43;100.00;101450.89;1476458;88;21427;-76
2023/12/15 10:07:03;;;;;;;9.97;3.93;;;;;;;4.45;100.00;101452.94;1458531;88;21398;-76
2023/12/15 10:09:30;;;;;;;6.33;3.97;;;;;;;4.42;100.00;101450.95;1479431;88;21449;-76
2023/12/15 10:11:56;;;;;;;11.50;5.37;;;;;;;4.45;100.00;101461.27;1480023;88;21450;-76
2023/12/15 10:14:23;;;;;;;6.87;4.40;;;;;;;4.35;100.00;101460.94;1480869;88;22234;-76
2023/12/15 10:16:49;;;;;;;5.60;3.33;;;;;;;4.31;100.00;101465.94;1484265;88;22211;-76
2023/12/15 10:19:18;;;;;;;6.70;3.97;;;;;;;4.34;100.00;101467.08;1479936;88;21354;-76
2023/12/15 10:21:44;;;;;;;7.63;4.60;;;;;;;4.38;100.00;101469.94;1474833;88;21575;-77
2023/12/15 10:24:25;;;;;;;6.30;3.60;;;;;;;4.35;100.00;101471.89;1467041;88;21435;-76
2023/12/15 10:26:51;;;;;;;6.87;3.40;;;;;;;4.37;100.00;101470.84;1479251;88;21317;-77
2023/12/15 10:29:19;;;;;;;5.90;4.07;;;;;;;4.40;100.00;101477.27;1474528;88;21583;-76
2023/12/15 10:31:45;;;;;;;5.53;3.50;;;;;;;4.47;100.00;101478.61;1479949;88;21361;-77
2023/12/15 10:34:11;;;;;;;6.17;3.60;;;;;;;4.55;100.00;101474.75;1480901;88;21435;-76
2023/12/15 10:36:45;;;;;;;8.87;4.97;;;;;;;4.55;100.00;101474.75;1481818;88;21502;-77
2023/12/15 10:39:06;;;;;;;7.17;4.87;;;;;;;4.57;100.00;101480.73;1485645;88;21963;-76
2023/12/15 10:41:34;;;;;;;7.40;4.50;;;;;;;4.52;100.00;101477.06;1480729;88;21302;-77
2023/12/15 10:44:05;;;;;;;11.30;7.43;;;;;;;4.53;100.00;101486.61;1478216;88;21420;-77
2023/12/15 10:46:33;;;;;;;8.90;4.25;;;;;;;4.43;100.00;101497.20;1480495;88;22485;-77
2023/12/15 10:49:00;;;;;;;12.00;4.93;;;;;;;4.45;100.00;101494.87;1475164;88;21273;-76
2023/12/15 10:51:29;;;;;;;10.90;5.87;;;;;;;4.45;100.00;101499.28;1477646;88;21564;-76
2023/12/15 10:53:56;;;;;;;8.23;5.13;;;;;;;4.34;100.00;101505.09;1482981;88;21398;-77
2023/12/15 10:56:26;;;;;;;9.07;5.43;;;;;;;4.31;100.00;101506.56;1478832;88;21428;-76
2023/12/15 10:58:53;;;;;;;10.67;6.73;;;;;;;4.26;100.00;101516.46;1480464;88;21474;-77
2023/12/15 11:01:22;;;;;;;11.00;6.77;;;;;;;4.12;100.00;101520.27;1480235;88;21332;-77
2023/12/15 11:03:49;;;;;;;6.67;3.50;;;;;;;4.20;100.00;101511.08;1475933;88;21535;-76
2023/12/15 11:06:30;;;;;;;7.07;4.40;;;;;;;4.12;100.00;101515.87;1475573;88;21380;-76
2023/12/15 11:09:07;;;;;;;7.97;5.40;;;;;;;4.03;100.00;101521.11;1475764;88;22433;-77
2023/12/15 11:11:33;;;;;;;12.57;6.90;;;;;;;3.97;100.00;101527.98;1485244;88;21346;-77